Time;durP1;ratioP1;P1;durP2;ratioP2;P2;SDS_P1;SDS_P2;PMS_P1;PMS_P2;Temp;Humidity;BMP_temperature;BMP_pressure;BME280_temperature;BME280_humidity;BME280_pressure;Samples;Min_cycle;Max_cycle;Signal;HPM_P1;HPM_P2
2022/07/19 00:01:23;;;;;;;;;6.33;6.00;;;;;27.66;33.53;101091.75;5058886;28;45485;-73
2022/07/19 00:03:49;;;;;;;;;7.00;7.00;;;;;27.64;33.62;101091.19;5058947;28;45390;-73
2022/07/19 00:06:14;;;;;;;;;7.33;7.33;;;;;27.60;32.74;101086.28;5058935;28;45451;-74
2022/07/19 00:08:39;;;;;;;;;6.00;6.00;;;;;27.57;32.60;101083.31;5058454;28;45513;-74
2022/07/19 00:11:05;;;;;;;;;7.00;7.00;;;;;27.62;33.13;101088.75;5058942;28;45366;-73
2022/07/19 00:13:30;;;;;;;;;7.00;7.00;;;;;27.64;32.79;101085.72;5058970;28;45352;-73
2022/07/19 00:15:56;;;;;;;;;5.67;5.67;;;;;27.62;33.57;101079.75;5043318;28;46093;-73
2022/07/19 00:18:21;;;;;;;;;6.00;6.00;;;;;27.64;32.87;101072.09;5067423;28;45257;-73
2022/07/19 00:20:46;;;;;;;;;6.00;6.00;;;;;27.65;33.61;101084.69;5054392;28;45359;-73
2022/07/19 00:23:12;;;;;;;;;6.50;5.00;;;;;27.65;33.42;101084.69;5058514;28;45553;-73
2022/07/19 00:25:38;;;;;;;;;7.33;7.33;;;;;27.62;33.01;101079.75;5051952;28;46383;-73
2022/07/19 00:28:04;;;;;;;;;4.33;4.33;;;;;27.63;33.66;101081.38;5060590;28;45719;-73
2022/07/19 00:30:29;;;;;;;;;5.00;4.67;;;;;27.65;34.00;101081.94;5062155;28;45216;-73
2022/07/19 00:32:55;;;;;;;;;7.33;7.33;;;;;27.59;34.11;101078.38;5062081;28;45762;-73
2022/07/19 00:35:20;;;;;;;;;5.00;5.00;;;;;27.56;34.27;101073.50;5062240;28;45303;-73
2022/07/19 00:37:45;;;;;;;;;5.00;5.00;;;;;27.51;34.35;101074.34;5043262;28;47103;-73
2022/07/19 00:40:11;;;;;;;;;6.00;6.00;;;;;27.43;34.03;101064.03;5062072;28;45331;-73
2022/07/19 00:42:38;;;;;;;;;5.00;5.00;;;;;27.36;34.37;101067.06;5062020;28;45423;-73
2022/07/19 00:45:04;;;;;;;;;5.00;5.00;;;;;27.30;34.39;101068.19;5061888;28;45336;-73
2022/07/19 00:47:29;;;;;;;;;5.67;5.67;;;;;27.21;34.77;101066.03;5061648;28;45489;-74
2022/07/19 00:49:55;;;;;;;;;4.00;4.00;;;;;27.16;34.79;101066.06;5061628;28;45273;-73
2022/07/19 00:52:24;;;;;;;;;5.00;5.00;;;;;27.10;34.80;101057.09;5051578;28;45772;-73
2022/07/19 00:54:53;;;;;;;;;5.67;5.33;;;;;27.04;35.03;101066.38;5061336;28;45479;-73
2022/07/19 00:57:18;;;;;;;;;5.33;5.33;;;;;26.92;35.19;101068.56;5061548;28;46148;-73
2022/07/19 00:59:45;;;;;;;;;0.00;0.00;;;;;26.88;34.98;101068.31;5061530;28;45313;-73
2022/07/19 01:02:12;;;;;;;;;7.00;4.67;;;;;26.80;35.51;101068.88;5061557;28;45350;-73
2022/07/19 01:04:38;;;;;;;;;6.00;5.33;;;;;26.73;35.31;101067.25;5050506;28;47067;-73
2022/07/19 01:07:03;;;;;;;;;6.00;5.33;;;;;26.65;35.08;101069.72;5043135;28;46373;-73
2022/07/19 01:09:28;;;;;;;;;8.00;6.00;;;;;26.61;35.77;101069.47;5061205;28;45210;-74
2022/07/19 01:11:55;;;;;;;;;6.00;6.00;;;;;26.56;36.10;101077.66;5036718;28;45362;-73
2022/07/19 01:14:20;;;;;;;;;7.67;6.00;;;;;26.49;35.79;101063.50;5039843;28;46988;-73
2022/07/19 01:16:46;;;;;;;;;7.33;6.00;;;;;26.44;35.85;101064.31;5051762;28;47277;-73
2022/07/19 01:19:13;;;;;;;;;6.00;6.00;;;;;26.39;36.13;101065.13;5042643;28;45433;-73
2022/07/19 01:21:39;;;;;;;;;5.00;5.00;;;;;26.33;36.38;101068.94;5041249;28;45543;-73
2022/07/19 01:24:05;;;;;;;;;4.67;4.00;;;;;26.28;36.52;101055.31;5040676;28;45278;-73
2022/07/19 01:26:30;;;;;;;;;6.00;6.00;;;;;26.27;36.41;101059.13;5044668;28;47494;-73
2022/07/19 01:28:55;;;;;;;;;6.67;5.00;;;;;26.26;36.68;101068.38;5041072;28;45251;-73
2022/07/19 01:31:21;;;;;;;;;5.00;5.00;;;;;26.24;36.60;101071.38;5039770;28;45374;-73
2022/07/19 01:33:46;;;;;;;;;6.33;6.33;;;;;26.17;36.33;101065.38;5040961;28;45891;-73
2022/07/19 01:36:12;;;;;;;;;6.00;6.00;;;;;26.15;36.42;101065.66;5040648;28;45371;-73
2022/07/19 01:38:39;;;;;;;;;5.00;5.00;;;;;26.11;36.52;101061.84;5044977;28;45428;-73
2022/07/19 01:41:06;;;;;;;;;8.00;7.00;;;;;26.02;36.82;101056.13;5039441;28;45275;-73
2022/07/19 01:43:32;;;;;;;;;7.33;6.33;;;;;26.00;37.31;101063.75;5040713;28;45519;-73
2022/07/19 01:45:57;;;;;;;;;6.33;6.33;;;;;25.94;37.52;101053.94;5050406;28;47080;-73
2022/07/19 01:48:23;;;;;;;;;6.00;6.00;;;;;25.91;37.24;101049.84;5040820;28;45391;-73
2022/07/19 01:50:49;;;;;;;;;4.33;4.33;;;;;25.86;37.24;101054.47;5048758;28;45488;-73
2022/07/19 01:53:14;;;;;;;;;7.00;5.33;;;;;25.83;37.01;101047.69;5038893;28;45790;-73
2022/07/19 01:55:39;;;;;;;;;7.00;7.00;;;;;25.78;37.80;101050.38;5040805;28;45401;-73
2022/07/19 01:58:05;;;;;;;;;6.33;6.33;;;;;25.74;37.87;101047.41;5052201;28;45405;-73
2022/07/19 02:00:31;;;;;;;;;5.67;5.67;;;;;25.69;37.35;101050.94;5043201;28;45341;-74
2022/07/19 02:02:56;;;;;;;;;5.00;5.00;;;;;25.58;37.63;101041.88;5046078;28;46238;-73
2022/07/19 02:05:22;;;;;;;;;6.33;5.00;;;;;25.59;37.38;101042.72;5040249;28;46545;-73
2022/07/19 02:07:47;;;;;;;;;8.67;7.67;;;;;25.57;37.56;101044.88;5038787;28;45941;-73
2022/07/19 02:10:13;;;;;;;;;6.33;6.33;;;;;25.53;37.14;101038.34;5049906;28;45421;-73
2022/07/19 02:12:38;;;;;;;;;7.00;6.67;;;;;25.55;37.72;101039.69;5040502;28;45428;-73
2022/07/19 02:15:05;;;;;;;;;7.33;7.33;;;;;25.55;37.58;101041.59;5040358;28;45383;-73
2022/07/19 02:17:30;;;;;;;;;7.00;7.00;;;;;25.54;38.30;101043.53;5051756;28;45680;-73
2022/07/19 02:19:55;;;;;;;;;7.00;7.00;;;;;25.47;37.87;101032.88;5040330;28;45312;-73
2022/07/19 02:22:21;;;;;;;;;8.33;7.33;;;;;25.51;37.95;101041.34;5040268;28;45433;-73
2022/07/19 02:24:47;;;;;;;;;7.67;7.67;;;;;25.45;38.32;101032.34;5043544;28;48307;-73
2022/07/19 02:27:12;;;;;;;;;7.33;7.00;;;;;25.43;37.77;101026.34;5040115;28;45380;-73
2022/07/19 02:29:38;;;;;;;;;10.33;7.67;;;;;25.43;38.00;101022.81;5041697;28;45355;-73
2022/07/19 02:32:04;;;;;;;;;9.00;8.33;;;;;25.45;37.39;101029.63;5040053;28;45434;-73
2022/07/19 02:34:30;;;;;;;;;4.67;4.67;;;;;25.45;37.85;101042.41;5035127;28;48134;-73
2022/07/19 02:36:55;;;;;;;;;9.00;7.67;;;;;25.45;37.85;101039.69;5028717;28;45459;-73
2022/07/19 02:39:21;;;;;;;;;8.67;8.00;;;;;25.44;38.19;101029.91;5038306;28;45308;-73
2022/07/19 02:41:46;;;;;;;;;10.33;8.67;;;;;25.46;38.86;101031.25;5040078;28;45273;-73
2022/07/19 02:44:11;;;;;;;;;9.00;7.67;;;;;25.51;38.77;101032.34;5039691;28;46500;-73
2022/07/19 02:46:37;;;;;;;;;8.00;8.00;;;;;25.47;38.83;101024.72;5026132;28;45233;-73
2022/07/19 02:49:03;;;;;;;;;8.00;8.00;;;;;25.54;38.84;101032.63;5039803;28;45318;-73
2022/07/19 02:51:28;;;;;;;;;7.00;7.00;;;;;25.50;39.43;101028.78;5038972;28;45493;-73
2022/07/19 02:53:53;;;;;;;;;7.00;7.00;;;;;25.51;39.37;101032.34;5039345;28;45523;-73
2022/07/19 02:56:19;;;;;;;;;11.33;10.00;;;;;25.46;39.36;101020.38;5050621;28;46042;-73
2022/07/19 02:58:44;;;;;;;;;9.67;9.00;;;;;25.46;39.56;101014.94;5042738;28;45277;-73
2022/07/19 03:01:09;;;;;;;;;8.00;8.00;;;;;25.43;39.39;101025.53;5039484;28;45296;-73
2022/07/19 03:03:44;;;;;;;;;7.67;6.00;;;;;25.35;39.36;101016.00;5039439;28;45211;-74
2022/07/19 03:06:12;;;;;;;;;10.00;8.00;;;;;25.36;39.16;101025.78;5039658;28;45285;-73
2022/07/19 03:08:37;;;;;;;;;9.67;8.00;;;;;25.31;39.83;101026.59;5039007;28;45386;-73
2022/07/19 03:11:03;;;;;;;;;8.67;8.67;;;;;25.25;39.65;101022.22;5041908;28;47282;-73
2022/07/19 03:13:29;;;;;;;;;8.67;8.00;;;;;25.21;39.36;101019.22;5039323;28;46571;-72
2022/07/19 03:15:54;;;;;;;;;7.67;7.67;;;;;25.16;39.54;101021.91;5056435;28;46084;-73
2022/07/19 03:18:19;;;;;;;;;9.33;8.67;;;;;25.15;39.32;101020.28;5048612;28;45338;-73
2022/07/19 03:20:45;;;;;;;;;8.00;8.00;;;;;25.13;39.33;101024.34;5039255;28;45940;-73
2022/07/19 03:23:10;;;;;;;;;8.33;7.67;;;;;25.14;39.34;101023.28;5039004;28;46229;-73
2022/07/19 03:25:35;;;;;;;;;9.33;8.00;;;;;25.07;39.25;101021.59;5049522;28;45298;-73
2022/07/19 03:28:01;;;;;;;;;8.33;8.33;;;;;25.03;39.19;101022.41;5039295;28;45485;-73
2022/07/19 03:30:26;;;;;;;;;6.33;6.33;;;;;25.02;38.00;101020.78;5039181;28;45402;-73
2022/07/19 03:32:52;;;;;;;;;8.33;8.00;;;;;25.04;38.10;101022.13;5053126;28;47338;-73
2022/07/19 03:35:19;;;;;;;;;11.00;10.33;;;;;25.11;38.40;101026.53;5037883;28;45285;-73
2022/07/19 03:37:44;;;;;;;;;10.00;9.00;;;;;25.09;37.58;101027.63;5038764;28;45158;-73
2022/07/19 03:40:11;;;;;;;;;7.33;7.33;;;;;25.12;38.00;101030.88;5039066;28;45440;-73
2022/07/19 03:42:36;;;;;;;;;11.00;8.33;;;;;25.14;37.75;101031.44;5048766;28;47114;-73
2022/07/19 03:45:02;;;;;;;;;11.33;9.33;;;;;25.08;38.01;101025.97;5038989;28;45435;-73
2022/07/19 03:47:27;;;;;;;;;9.67;9.00;;;;;25.17;38.30;101028.19;5039140;28;45298;-74
2022/07/19 03:49:53;;;;;;;;;9.67;9.67;;;;;25.17;37.52;101034.41;5052726;28;49367;-73
2022/07/19 03:52:18;;;;;;;;;8.67;8.67;;;;;25.21;37.40;101029.28;5038898;28;46457;-73
2022/07/19 03:54:43;;;;;;;;;10.67;10.67;;;;;25.23;37.44;101037.97;5038414;28;45255;-73
2022/07/19 03:57:09;;;;;;;;;8.00;8.00;;;;;25.25;37.24;101029.53;5039090;28;45367;-73
2022/07/19 03:59:34;;;;;;;;;8.67;8.67;;;;;25.23;36.55;101032.53;5038709;28;45366;-73
2022/07/19 04:01:59;;;;;;;;;9.67;9.00;;;;;25.26;36.99;101028.47;5039028;28;46559;-73
2022/07/19 04:04:25;;;;;;;;;12.33;10.33;;;;;25.24;37.00;101014.31;5042338;28;45256;-73
2022/07/19 04:06:50;;;;;;;;;9.33;9.00;;;;;25.29;36.85;101026.03;5052286;28;45355;-73
2022/07/19 04:09:15;;;;;;;;;9.33;9.33;;;;;25.33;36.80;101024.44;5042046;28;45315;-73
2022/07/19 04:11:41;;;;;;;;;10.00;10.00;;;;;25.35;36.75;101013.28;5049841;28;48649;-73
2022/07/19 04:14:06;;;;;;;;;10.00;10.00;;;;;25.34;36.80;101015.19;5042059;28;45567;-73
2022/07/19 04:16:32;;;;;;;;;9.00;8.33;;;;;25.36;37.10;101012.19;5050230;28;45464;-73
2022/07/19 04:18:58;;;;;;;;;9.00;9.00;;;;;25.34;37.13;101023.34;5045720;28;45300;-73
2022/07/19 04:21:23;;;;;;;;;10.67;8.33;;;;;25.33;37.27;101024.44;5042073;28;45289;-73
2022/07/19 04:23:48;;;;;;;;;10.00;8.33;;;;;25.34;37.27;101027.94;5041696;28;45277;-74
2022/07/19 04:26:14;;;;;;;;;11.00;9.33;;;;;25.31;37.12;101021.16;5042407;28;45841;-74
2022/07/19 04:28:39;;;;;;;;;10.67;8.67;;;;;25.33;37.02;101031.75;5042101;28;45537;-74
2022/07/19 04:31:05;;;;;;;;;10.33;8.00;;;;;25.30;36.82;101018.69;5055379;28;47082;-74
2022/07/19 04:33:30;;;;;;;;;10.00;10.00;;;;;25.30;37.06;101019.53;5040634;28;45464;-75
2022/07/19 04:35:56;;;;;;;;;10.00;9.33;;;;;25.30;37.03;101016.81;5042186;28;45925;-75
2022/07/19 04:38:21;;;;;;;;;9.00;9.00;;;;;25.30;37.36;101027.69;5041593;28;45413;-74
2022/07/19 04:40:47;;;;;;;;;13.00;11.00;;;;;25.27;36.99;101013.78;5040468;28;48513;-74
2022/07/19 04:43:13;;;;;;;;;10.67;10.67;;;;;25.29;36.99;101015.16;5040564;28;45464;-74
2022/07/19 04:45:42;;;;;;;;;12.33;10.00;;;;;25.30;36.98;101016.81;5040505;28;45376;-74
2022/07/19 04:48:07;;;;;;;;;11.00;10.67;;;;;25.30;37.54;101011.38;5041580;28;45247;-74
2022/07/19 04:50:33;;;;;;;;;10.33;9.00;;;;;25.29;37.53;101017.88;5036649;28;47006;-74
2022/07/19 04:52:58;;;;;;;;;10.00;10.00;;;;;25.30;37.29;101008.66;5038641;28;46023;-74
2022/07/19 04:55:24;;;;;;;;;11.67;10.33;;;;;25.30;37.72;101015.97;5045392;28;45370;-73
2022/07/19 04:57:49;;;;;;;;;10.67;10.67;;;;;25.30;37.53;101016.81;5041571;28;45335;-74
2022/07/19 05:00:15;;;;;;;;;10.67;10.67;;;;;25.29;37.74;101017.88;5043071;28;48501;-74
2022/07/19 05:02:40;;;;;;;;;9.67;9.33;;;;;25.32;37.91;101014.63;5041622;28;45292;-74
2022/07/19 05:05:06;;;;;;;;;10.67;10.00;;;;;25.33;37.79;101020.88;5041615;28;45286;-73
2022/07/19 05:07:31;;;;;;;;;10.33;8.33;;;;;25.30;38.41;101010.53;5041180;28;45345;-74
2022/07/19 05:09:57;;;;;;;;;10.33;9.33;;;;;25.30;38.29;101011.38;5043606;28;45716;-73
2022/07/19 05:12:22;;;;;;;;;11.00;9.67;;;;;25.31;38.09;101015.72;5039787;28;45921;-73
2022/07/19 05:14:48;;;;;;;;;34.00;31.00;;;;;25.30;38.32;101011.38;5051181;28;45336;-73
2022/07/19 05:17:14;;;;;;;;;11.33;11.33;;;;;25.31;38.84;101002.09;5072807;28;45318;-73
2022/07/19 05:19:39;;;;;;;;;11.00;9.67;;;;;25.36;38.22;101003.19;5047380;28;47124;-73
2022/07/19 05:22:05;;;;;;;;;12.00;11.00;;;;;25.36;37.66;101001.31;5061359;28;45247;-73
2022/07/19 05:24:30;;;;;;;;;11.33;11.33;;;;;25.38;38.19;100995.59;5043227;28;45380;-73
2022/07/19 05:26:55;;;;;;;;;14.67;11.00;;;;;25.41;37.91;100995.06;5061331;28;45436;-73
2022/07/19 05:29:21;;;;;;;;;12.67;11.67;;;;;25.48;37.92;101001.06;5060928;28;49507;-73
2022/07/19 05:31:46;;;;;;;;;10.33;10.33;;;;;25.53;37.81;101002.97;5061213;28;45424;-73
2022/07/19 05:34:12;;;;;;;;;11.33;10.33;;;;;25.59;37.70;101010.91;5061136;28;45271;-73
2022/07/19 05:36:37;;;;;;;;;11.67;11.67;;;;;25.63;38.65;101002.19;5061094;28;45714;-73
2022/07/19 05:39:03;;;;;;;;;13.00;13.00;;;;;25.66;38.73;101001.66;5060788;28;45312;-72
2022/07/19 05:41:28;;;;;;;;;10.33;10.33;;;;;25.66;38.93;100986.16;5060976;28;45319;-73
2022/07/19 05:43:54;;;;;;;;;11.33;11.00;;;;;25.73;38.51;101002.19;5061231;28;45307;-73
2022/07/19 05:46:20;;;;;;;;;9.33;9.00;;;;;25.78;38.66;101012.28;5060783;28;45343;-73
2022/07/19 05:48:46;;;;;;;;;11.67;10.67;;;;;25.82;38.49;101008.75;5042776;28;47626;-73
2022/07/19 05:51:11;;;;;;;;;12.33;11.67;;;;;25.86;38.90;101000.03;5060613;28;45489;-73
2022/07/19 05:53:36;;;;;;;;;11.67;11.67;;;;;25.93;39.12;101006.03;5039275;28;45392;-73
2022/07/19 05:56:03;;;;;;;;;12.00;11.00;;;;;25.94;38.72;100991.31;5039217;28;47177;-73
2022/07/19 05:58:28;;;;;;;;;10.33;9.00;;;;;25.96;38.22;100981.81;5042144;28;48710;-73
2022/07/19 06:03:38;;;;;;;;;11.00;11.00;;;;;26.14;37.92;100986.97;5060662;28;45325;-73
2022/07/19 06:06:03;;;;;;;;;10.33;10.33;;;;;26.23;37.93;100996.22;5038983;28;46419;-73
2022/07/19 06:08:29;;;;;;;;;12.67;10.67;;;;;26.33;37.65;100989.94;5049408;28;48198;-73
2022/07/19 06:10:54;;;;;;;;;13.00;12.00;;;;;26.39;36.91;100991.56;5046435;28;45381;-73
2022/07/19 06:13:20;;;;;;;;;11.00;11.00;;;;;26.49;37.03;100988.03;5060764;28;45356;-73
2022/07/19 06:15:45;;;;;;;;;14.67;13.00;;;;;26.56;37.28;100988.53;5058190;28;47159;-73
2022/07/19 06:18:11;;;;;;;;;12.33;11.33;;;;;26.66;36.61;100989.63;5070510;28;45598;-73
2022/07/19 06:20:36;;;;;;;;;14.33;12.00;;;;;26.76;36.90;100989.59;5060337;28;45418;-73
2022/07/19 06:23:01;;;;;;;;;11.67;11.00;;;;;26.84;37.01;100988.16;5038809;28;45304;-73
2022/07/19 06:25:27;;;;;;;;;11.67;10.67;;;;;26.94;37.18;100990.03;5048368;28;45730;-73
2022/07/19 06:27:52;;;;;;;;;11.67;10.33;;;;;27.00;37.07;100977.22;5041493;28;47288;-73
2022/07/19 06:30:17;;;;;;;;;14.00;11.33;;;;;27.05;36.38;100977.19;5050227;28;45484;-73
2022/07/19 06:32:43;;;;;;;;;12.67;12.67;;;;;27.10;36.65;100975.28;5060061;28;45255;-73
2022/07/19 06:35:08;;;;;;;;;11.67;11.00;;;;;27.21;36.13;100965.09;5060431;28;45298;-73
2022/07/19 06:37:34;;;;;;;;;10.00;9.67;;;;;27.31;35.93;100964.25;5059405;28;45362;-73
2022/07/19 06:39:59;;;;;;;;;15.67;15.67;;;;;27.40;35.37;100960.91;5060210;28;45333;-74
2022/07/19 06:42:24;;;;;;;;;11.00;10.00;;;;;27.46;35.62;100962.50;5060106;28;45405;-74
2022/07/19 06:44:50;;;;;;;;;13.67;13.67;;;;;27.53;35.35;100960.25;5060085;28;45517;-73
2022/07/19 06:47:15;;;;;;;;;14.33;12.67;;;;;27.62;35.44;100946.00;5059911;28;46176;-73
2022/07/19 06:49:41;;;;;;;;;11.00;10.67;;;;;27.71;35.43;100949.78;5059542;28;45216;-73
2022/07/19 06:52:06;;;;;;;;;14.00;14.00;;;;;27.81;35.56;100952.44;5060164;28;45412;-73
2022/07/19 06:54:32;;;;;;;;;11.00;10.33;;;;;27.91;35.48;100947.97;5059411;28;45371;-74
2022/07/19 06:56:57;;;;;;;;;9.00;9.00;;;;;27.99;35.24;100952.81;5059669;28;46639;-73
2022/07/19 06:59:23;;;;;;;;;14.00;12.67;;;;;28.07;35.92;100954.13;5059907;28;45370;-73
2022/07/19 07:01:48;;;;;;;;;10.00;10.00;;;;;28.13;35.51;100952.94;5059676;28;45355;-74
2022/07/19 07:04:14;;;;;;;;;10.67;10.67;;;;;28.23;35.57;100941.09;5059859;28;45388;-73
2022/07/19 07:06:39;;;;;;;;;12.33;12.33;;;;;28.28;35.21;100943.75;5059647;28;45575;-74
2022/07/19 07:09:04;;;;;;;;;12.67;12.00;;;;;28.37;34.90;100943.16;5041169;28;46112;-73
2022/07/19 07:11:30;;;;;;;;;13.33;13.33;;;;;28.43;34.74;100942.81;5059687;28;45789;-73
2022/07/19 07:13:55;;;;;;;;;12.00;12.00;;;;;28.53;35.27;100950.09;5059483;28;45580;-73
2022/07/19 07:16:21;;;;;;;;;14.00;14.00;;;;;28.57;34.65;100934.72;5065846;28;45452;-73
2022/07/19 07:18:46;;;;;;;;;12.67;12.67;;;;;28.68;34.58;100937.34;5064765;28;45384;-73
2022/07/19 07:21:12;;;;;;;;;10.33;10.33;;;;;28.76;34.48;100939.41;5059611;28;45238;-73
2022/07/19 07:23:37;;;;;;;;;9.67;8.33;;;;;28.84;34.82;100938.75;5041133;28;46170;-73
2022/07/19 07:26:02;;;;;;;;;13.00;13.00;;;;;28.92;33.94;100933.72;5056435;28;48046;-73
2022/07/19 07:28:28;;;;;;;;;11.00;11.00;;;;;29.05;34.53;100932.22;5041233;28;45568;-73
2022/07/19 07:30:54;;;;;;;;;14.00;10.67;;;;;29.13;34.36;100934.28;5041270;28;45198;-73
2022/07/19 07:33:19;;;;;;;;;12.67;11.33;;;;;29.22;34.42;100927.03;5046332;28;46312;-73
2022/07/19 07:35:44;;;;;;;;;11.67;11.67;;;;;29.33;34.10;100924.16;5040828;28;48772;-73
2022/07/19 07:38:10;;;;;;;;;9.67;8.67;;;;;29.44;34.21;100927.50;5059020;28;45347;-74
2022/07/19 07:40:35;;;;;;;;;11.00;11.00;;;;;29.50;34.89;100915.38;5059133;28;45496;-74
2022/07/19 07:43:02;;;;;;;;;12.33;12.33;;;;;29.58;34.01;100917.47;5059005;28;45270;-74
2022/07/19 07:45:28;;;;;;;;;15.00;13.33;;;;;29.71;34.13;100923.25;5059164;28;45640;-73
2022/07/19 07:47:53;;;;;;;;;13.33;12.33;;;;;29.78;33.25;100915.47;5058888;28;45433;-74
2022/07/19 07:50:19;;;;;;;;;12.67;12.33;;;;;29.91;33.24;100919.38;5058931;28;45509;-73
2022/07/19 07:52:44;;;;;;;;;12.00;12.00;;;;;29.98;33.07;100919.78;5051622;28;46021;-74
2022/07/19 07:55:10;;;;;;;;;10.33;10.33;;;;;30.09;33.54;100916.84;5059155;28;45820;-74
2022/07/19 07:57:35;;;;;;;;;11.00;11.00;;;;;30.12;33.02;100897.06;5058741;28;45422;-74
2022/07/19 08:00:00;;;;;;;;;13.00;13.00;;;;;30.32;32.94;100906.03;5058817;28;45372;-73
2022/07/19 08:02:26;;;;;;;;;11.67;11.67;;;;;30.38;33.28;100909.47;5059059;28;45393;-74
2022/07/19 08:04:51;;;;;;;;;12.00;12.00;;;;;30.40;32.31;100902.56;5058826;28;45410;-74
2022/07/19 08:07:16;;;;;;;;;16.67;14.67;;;;;30.49;32.92;100902.63;5058574;28;45327;-74
2022/07/19 08:09:42;;;;;;;;;11.33;11.00;;;;;30.58;32.65;100900.81;5047303;28;45554;-73
2022/07/19 08:12:07;;;;;;;;;14.33;13.67;;;;;30.70;32.42;100899.44;5058519;28;45589;-73
2022/07/19 08:14:32;;;;;;;;;13.67;13.00;;;;;30.74;32.29;100887.56;5058694;28;45579;-74
2022/07/19 08:16:58;;;;;;;;;11.00;10.00;;;;;30.87;32.40;100893.34;5070097;28;45399;-74
2022/07/19 08:19:24;;;;;;;;;15.00;13.67;;;;;30.97;32.38;100892.28;5059025;28;45454;-73
2022/07/19 08:21:49;;;;;;;;;14.33;14.33;;;;;31.12;32.17;100883.72;5058532;28;45557;-73
2022/07/19 08:24:14;;;;;;;;;14.33;12.00;;;;;31.26;32.62;100880.09;5058138;28;45354;-73
2022/07/19 08:26:39;;;;;;;;;12.33;12.33;;;;;31.39;32.16;100897.63;5058834;28;45366;-73
2022/07/19 08:29:05;;;;;;;;;12.00;11.67;;;;;31.45;32.06;100893.63;5058528;28;47816;-74
2022/07/19 08:31:30;;;;;;;;;12.33;12.33;;;;;31.52;31.51;100887.72;5058678;28;45463;-73
2022/07/19 08:33:56;;;;;;;;;15.00;13.33;;;;;31.64;31.80;100897.31;5058408;28;46249;-73
2022/07/19 08:36:21;;;;;;;;;12.33;11.00;;;;;31.68;31.41;100890.06;5058404;28;45438;-73
2022/07/19 08:38:46;;;;;;;;;12.33;12.33;;;;;31.75;31.49;100893.16;5058405;28;45496;-73
2022/07/19 08:41:14;;;;;;;;;13.33;13.33;;;;;31.85;31.35;100879.16;5040089;28;46456;-74
2022/07/19 08:43:40;;;;;;;;;12.33;12.33;;;;;31.94;31.31;100878.41;5058444;28;46311;-73
2022/07/19 08:46:05;;;;;;;;;14.67;14.67;;;;;32.05;30.82;100878.94;5052379;28;45415;-73
2022/07/19 08:48:36;;;;;;;;;13.33;12.00;;;;;32.18;31.25;100888.19;5045630;28;45297;-74
2022/07/19 08:51:04;;;;;;;;;12.33;11.33;;;;;32.24;31.36;100875.91;5061571;28;45434;-74
2022/07/19 08:53:31;;;;;;;;;13.33;13.33;;;;;32.32;30.70;100877.88;5039724;28;46812;-74
2022/07/19 08:55:56;;;;;;;;;12.67;12.67;;;;;32.40;31.10;100868.03;5054327;28;45368;-74
2022/07/19 08:58:22;;;;;;;;;13.67;13.00;;;;;32.55;30.44;100875.03;5061516;28;45364;-74
2022/07/19 09:00:47;;;;;;;;;13.00;12.67;;;;;32.66;30.26;100866.47;5043667;28;45393;-73
2022/07/19 09:03:12;;;;;;;;;14.33;14.00;;;;;32.78;30.36;100860.31;5061732;28;45512;-73
2022/07/19 09:05:38;;;;;;;;;14.67;11.67;;;;;32.88;29.99;100857.22;5061520;28;45375;-73
2022/07/19 09:08:10;;;;;;;;;12.67;12.67;;;;;32.95;29.60;100854.00;5043492;28;45396;-73
2022/07/19 09:10:39;;;;;;;;;11.33;11.33;;;;;33.12;29.09;100859.50;5061445;28;45482;-74
2022/07/19 09:13:13;;;;;;;;;13.67;13.00;;;;;33.25;29.12;100862.41;5061544;28;47242;-74
2022/07/19 09:15:45;;;;;;;;;12.67;12.67;;;;;33.36;28.88;100857.34;5061651;28;45280;-73
2022/07/19 09:18:21;;;;;;;;;14.67;14.33;;;;;33.45;28.45;100855.38;5071948;28;45405;-74
2022/07/19 09:20:49;;;;;;;;;14.33;14.33;;;;;33.57;28.56;100860.19;5056905;28;47298;-74
2022/07/19 09:23:15;;;;;;;;;14.33;13.00;;;;;33.69;27.52;100859.53;5061052;28;45456;-74
2022/07/19 09:25:54;;;;;;;;;12.00;12.00;;;;;33.82;27.03;100854.94;5055168;28;45524;-74
2022/07/19 09:28:22;;;;;;;;;11.33;10.67;;;;;33.98;27.39;100859.91;5061638;28;45345;-74
2022/07/19 09:30:52;;;;;;;;;12.00;12.00;;;;;34.07;27.47;100855.16;5059214;28;45339;-74
2022/07/19 09:33:19;;;;;;;;;10.33;10.00;;;;;34.13;26.76;100842.00;5049465;28;46797;-74
2022/07/19 09:35:50;;;;;;;;;12.67;12.67;;;;;34.20;27.03;100838.75;5053954;28;45332;-74
2022/07/19 09:38:17;;;;;;;;;13.67;12.67;;;;;34.36;27.10;100847.22;5060722;28;45356;-74
2022/07/19 09:40:42;;;;;;;;;13.33;12.33;;;;;34.42;26.74;100834.03;5052896;28;45934;-74
2022/07/19 09:43:07;;;;;;;;;15.67;14.33;;;;;34.47;25.69;100831.06;5042565;28;47361;-74
2022/07/19 09:45:33;;;;;;;;;10.67;10.67;;;;;34.61;25.56;100839.06;5042830;28;45350;-74
2022/07/19 09:48:00;;;;;;;;;13.67;13.67;;;;;34.72;25.90;100822.94;5060897;28;45269;-73
2022/07/19 09:50:26;;;;;;;;;12.00;12.00;;;;;34.89;25.42;100827.47;5060832;28;45304;-74
2022/07/19 09:52:52;;;;;;;;;13.00;12.33;;;;;35.01;25.09;100819.25;5060276;28;45489;-73
2022/07/19 09:55:18;;;;;;;;;13.67;13.67;;;;;35.14;25.68;100825.59;5061086;28;45569;-74
2022/07/19 09:57:47;;;;;;;;;12.33;11.33;;;;;35.22;25.01;100806.56;5060774;28;45275;-74
2022/07/19 10:00:14;;;;;;;;;13.00;12.33;;;;;35.41;24.87;100807.97;5059218;28;45398;-73
2022/07/19 10:02:42;;;;;;;;;14.33;13.67;;;;;35.51;25.29;100801.97;5060655;28;45303;-74
2022/07/19 10:05:10;;;;;;;;;13.00;11.00;;;;;35.62;25.14;100799.56;5060478;28;45360;-74
2022/07/19 10:07:36;;;;;;;;;13.00;12.67;;;;;35.78;25.04;100808.00;5045655;28;45367;-74
2022/07/19 10:10:07;;;;;;;;;13.00;12.00;;;;;35.92;24.48;100815.13;5042112;28;47184;-74
2022/07/19 10:12:33;;;;;;;;;9.67;9.67;;;;;36.03;22.94;100801.66;5058518;28;48394;-74
2022/07/19 10:14:59;;;;;;;;;15.33;14.67;;;;;36.09;23.44;100794.72;5060403;28;45410;-73
2022/07/19 10:18:01;;;;;;;;;14.67;12.00;;;;;36.24;22.99;100796.00;5071929;28;45335;-74
2022/07/19 10:20:29;;;;;;;;;12.67;12.67;;;;;36.38;23.01;100807.47;5060146;28;45680;-74
2022/07/19 10:22:59;;;;;;;;;11.33;11.00;;;;;36.53;23.64;100790.47;5053892;28;46003;-77
2022/07/19 10:25:33;;;;;;;;;13.67;13.67;;;;;36.68;22.54;100786.13;5035501;28;45336;-73
2022/07/19 10:27:58;;;;;;;;;15.00;15.00;;;;;36.79;23.29;100773.41;5053855;28;45403;-75
2022/07/19 10:30:25;;;;;;;;;12.67;12.67;;;;;36.91;23.19;100768.97;5052585;28;45532;-74
2022/07/19 10:32:53;;;;;;;;;12.33;11.67;;;;;37.11;23.21;100770.66;5059871;28;45457;-74
2022/07/19 10:35:31;;;;;;;;;12.33;11.67;;;;;37.31;22.61;100776.34;5042107;28;46035;-75
2022/07/19 10:37:59;;;;;;;;;12.67;12.67;;;;;37.50;22.63;100770.06;5056978;28;45406;-74
2022/07/19 10:40:43;;;;;;;;;12.50;11.00;;;;;37.72;22.23;100762.28;5059882;28;45496;-74
2022/07/19 10:43:20;;;;;;;;;11.33;11.33;;;;;37.89;22.12;100754.72;5057852;28;47289;-75
2022/07/19 10:45:59;;;;;;;;;13.00;13.00;;;;;38.04;21.12;100758.63;5059999;28;45411;-75
2022/07/19 10:48:40;;;;;;;;;13.00;12.33;;;;;38.20;20.97;100753.03;5060181;28;45304;-74
2022/07/19 10:51:10;;;;;;;;;13.33;13.33;;;;;38.33;20.85;100748.13;5059605;28;45594;-74
2022/07/19 10:53:41;;;;;;;;;13.33;12.67;;;;;38.54;20.78;100749.69;5041281;28;45301;-74
2022/07/19 10:56:28;;;;;;;;;11.67;10.67;;;;;38.77;19.66;100735.06;5059677;28;45418;-75
2022/07/19 10:59:07;;;;;;;;;13.33;12.33;;;;;38.98;20.38;100739.38;5060032;28;45324;-74
2022/07/19 11:01:35;;;;;;;;;9.33;9.33;;;;;39.11;20.15;100732.50;5059220;28;45319;-74
2022/07/19 11:04:32;;;;;;;;;11.00;11.00;;;;;39.40;19.50;100729.34;5041633;28;46715;-74
2022/07/19 11:07:24;;;;;;;;;12.33;12.00;;;;;39.59;18.81;100724.91;5060443;28;45276;-74
2022/07/19 11:09:55;;;;;;;;;12.00;11.67;;;;;39.74;19.00;100725.91;5056947;28;45314;-75
2022/07/19 11:12:33;;;;;;;;;11.67;11.67;;;;;39.85;17.05;100714.91;5059854;28;45185;-75
2022/07/19 11:15:03;;;;;;;;;11.67;11.67;;;;;39.89;18.18;100712.97;5060225;28;45364;-75
2022/07/19 11:17:28;;;;;;;;;11.33;11.33;;;;;40.06;18.14;100711.59;5075932;28;45283;-75